sensor_id;sensor_type;location;lat;lon;timestamp;pressure;altitude;pressure_sealevel;temperature;humidity
74403;BME280;62837;51.082;13.744;2022-12-10T00:00:26;99438.89;;;2.48;75.90
74403;BME280;62837;51.082;13.744;2022-12-10T00:02:56;99441.92;;;2.52;75.81
74403;BME280;62837;51.082;13.744;2022-12-10T00:05:29;99442.19;;;2.52;75.62
74403;BME280;62837;51.082;13.744;2022-12-10T00:08:00;99445.02;;;2.49;75.32
74403;BME280;62837;51.082;13.744;2022-12-10T00:10:31;99441.95;;;2.47;75.58
74403;BME280;62837;51.082;13.744;2022-12-10T00:13:01;99438.17;;;2.46;75.37
74403;BME280;62837;51.082;13.744;2022-12-10T00:15:35;99439.09;;;2.44;75.68
74403;BME280;62837;51.082;13.744;2022-12-10T00:18:06;99436.77;;;2.44;75.86
74403;BME280;62837;51.082;13.744;2022-12-10T00:20:38;99436.71;;;2.48;75.77
74403;BME280;62837;51.082;13.744;2022-12-10T00:23:09;99434.34;;;2.51;75.80
74403;BME280;62837;51.082;13.744;2022-12-10T00:25:40;99439.21;;;2.46;75.39
74403;BME280;62837;51.082;13.744;2022-12-10T00:28:11;99440.87;;;2.38;75.46
74403;BME280;62837;51.082;13.744;2022-12-10T00:30:43;99440.12;;;2.31;75.61
74403;BME280;62837;51.082;13.744;2022-12-10T00:33:14;99442.77;;;2.26;75.91
74403;BME280;62837;51.082;13.744;2022-12-10T00:35:45;99444.77;;;2.37;80.30
74403;BME280;62837;51.082;13.744;2022-12-10T00:38:15;99444.34;;;2.67;82.97
74403;BME280;62837;51.082;13.744;2022-12-10T00:40:46;99434.83;;;2.77;79.67
74403;BME280;62837;51.082;13.744;2022-12-10T00:43:16;99440.73;;;2.98;80.72
74403;BME280;62837;51.082;13.744;2022-12-10T00:45:47;99440.07;;;3.08;78.88
74403;BME280;62837;51.082;13.744;2022-12-10T00:48:18;99436.66;;;3.17;77.89
74403;BME280;62837;51.082;13.744;2022-12-10T00:50:57;99440.13;;;3.20;77.54
74403;BME280;62837;51.082;13.744;2022-12-10T00:53:30;99440.70;;;3.25;77.74
74403;BME280;62837;51.082;13.744;2022-12-10T00:56:02;99437.15;;;3.33;78.09
74403;BME280;62837;51.082;13.744;2022-12-10T00:58:34;99442.27;;;3.31;75.97
74403;BME280;62837;51.082;13.744;2022-12-10T01:01:11;99442.95;;;3.19;75.23
74403;BME280;62837;51.082;13.744;2022-12-10T01:03:42;99445.21;;;3.14;76.55
74403;BME280;62837;51.082;13.744;2022-12-10T01:06:16;99441.45;;;3.14;77.22
74403;BME280;62837;51.082;13.744;2022-12-10T01:08:48;99446.23;;;3.22;76.80
74403;BME280;62837;51.082;13.744;2022-12-10T01:11:21;99445.58;;;3.22;76.15
74403;BME280;62837;51.082;13.744;2022-12-10T01:13:52;99447.94;;;3.19;75.52
74403;BME280;62837;51.082;13.744;2022-12-10T01:16:23;99447.38;;;3.16;75.73
74403;BME280;62837;51.082;13.744;2022-12-10T01:18:55;99445.02;;;3.10;75.20
74403;BME280;62837;51.082;13.744;2022-12-10T01:21:28;99449.06;;;3.03;74.87
74403;BME280;62837;51.082;13.744;2022-12-10T01:23:59;99449.53;;;2.94;75.50
74403;BME280;62837;51.082;13.744;2022-12-10T01:26:32;99446.48;;;2.93;76.65
74403;BME280;62837;51.082;13.744;2022-12-10T01:29:03;99447.17;;;3.03;76.25
74403;BME280;62837;51.082;13.744;2022-12-10T01:31:36;99445.77;;;3.10;75.96
74403;BME280;62837;51.082;13.744;2022-12-10T01:34:09;99450.08;;;3.09;75.22
74403;BME280;62837;51.082;13.744;2022-12-10T01:36:43;99454.30;;;3.04;75.26
74403;BME280;62837;51.082;13.744;2022-12-10T01:39:17;99457.90;;;3.07;76.25
74403;BME280;62837;51.082;13.744;2022-12-10T01:41:50;99458.81;;;3.06;74.81
74403;BME280;62837;51.082;13.744;2022-12-10T01:47:39;99460.75;;;2.95;76.30
74403;BME280;62837;51.082;13.744;2022-12-10T01:50:10;99465.46;;;3.07;77.47
74403;BME280;62837;51.082;13.744;2022-12-10T01:52:41;99465.70;;;3.20;75.83
74403;BME280;62837;51.082;13.744;2022-12-10T01:55:48;99462.23;;;3.23;76.46
74403;BME280;62837;51.082;13.744;2022-12-10T01:58:20;99461.23;;;3.25;74.77
74403;BME280;62837;51.082;13.744;2022-12-10T02:00:59;99459.81;;;3.20;75.57
74403;BME280;62837;51.082;13.744;2022-12-10T02:03:39;99454.90;;;3.24;76.26
74403;BME280;62837;51.082;13.744;2022-12-10T02:06:20;99456.58;;;3.32;75.55
74403;BME280;62837;51.082;13.744;2022-12-10T02:09:02;99460.66;;;3.41;76.37
74403;BME280;62837;51.082;13.744;2022-12-10T02:11:40;99457.42;;;3.47;74.95
74403;BME280;62837;51.082;13.744;2022-12-10T02:14:19;99454.38;;;3.49;75.88
74403;BME280;62837;51.082;13.744;2022-12-10T02:16:58;99456.23;;;3.54;74.67
74403;BME280;62837;51.082;13.744;2022-12-10T02:19:45;99449.98;;;3.47;73.82
74403;BME280;62837;51.082;13.744;2022-12-10T02:22:19;99445.14;;;3.42;75.11
74403;BME280;62837;51.082;13.744;2022-12-10T02:24:52;99442.85;;;3.44;75.33
74403;BME280;62837;51.082;13.744;2022-12-10T02:27:30;99447.00;;;3.55;75.21
74403;BME280;62837;51.082;13.744;2022-12-10T02:30:05;99448.77;;;3.56;74.49
74403;BME280;62837;51.082;13.744;2022-12-10T02:32:38;99446.39;;;3.56;74.90
74403;BME280;62837;51.082;13.744;2022-12-10T02:35:14;99447.43;;;3.54;73.98
74403;BME280;62837;51.082;13.744;2022-12-10T02:37:51;99443.02;;;3.56;75.30
74403;BME280;62837;51.082;13.744;2022-12-10T02:40:25;99442.65;;;3.59;73.92
74403;BME280;62837;51.082;13.744;2022-12-10T02:42:59;99442.96;;;3.56;73.63
74403;BME280;62837;51.082;13.744;2022-12-10T02:45:31;99445.58;;;3.54;73.78
74403;BME280;62837;51.082;13.744;2022-12-10T02:48:04;99446.25;;;3.48;73.24
74403;BME280;62837;51.082;13.744;2022-12-10T02:50:40;99445.61;;;3.41;72.94
74403;BME280;62837;51.082;13.744;2022-12-10T02:53:11;99446.59;;;3.35;73.73
74403;BME280;62837;51.082;13.744;2022-12-10T02:55:54;99449.27;;;3.40;75.12
74403;BME280;62837;51.082;13.744;2022-12-10T02:58:31;99447.90;;;3.46;73.68
74403;BME280;62837;51.082;13.744;2022-12-10T03:01:23;99449.81;;;3.44;73.93
74403;BME280;62837;51.082;13.744;2022-12-10T03:03:59;99453.02;;;3.49;74.47
74403;BME280;62837;51.082;13.744;2022-12-10T03:06:34;99452.72;;;3.50;72.97
74403;BME280;62837;51.082;13.744;2022-12-10T03:09:11;99455.32;;;3.45;74.35
74403;BME280;62837;51.082;13.744;2022-12-10T03:11:44;99457.52;;;3.53;74.19
74403;BME280;62837;51.082;13.744;2022-12-10T03:14:22;99460.57;;;3.47;72.82
74403;BME280;62837;51.082;13.744;2022-12-10T03:16:58;99468.36;;;3.36;73.64
74403;BME280;62837;51.082;13.744;2022-12-10T03:19:33;99468.44;;;3.44;74.99
74403;BME280;62837;51.082;13.744;2022-12-10T03:22:07;99471.23;;;3.54;73.33
74403;BME280;62837;51.082;13.744;2022-12-10T03:24:40;99468.27;;;3.46;73.85
74403;BME280;62837;51.082;13.744;2022-12-10T03:27:13;99470.70;;;3.55;75.09
74403;BME280;62837;51.082;13.744;2022-12-10T03:29:47;99469.23;;;3.67;74.85
74403;BME280;62837;51.082;13.744;2022-12-10T03:32:21;99464.10;;;3.67;73.47
74403;BME280;62837;51.082;13.744;2022-12-10T03:34:54;99467.66;;;3.64;73.52
74403;BME280;62837;51.082;13.744;2022-12-10T03:37:27;99468.26;;;3.70;74.49
74403;BME280;62837;51.082;13.744;2022-12-10T03:39:59;99468.91;;;3.76;73.58
74403;BME280;62837;51.082;13.744;2022-12-10T03:42:30;99471.95;;;3.72;72.47
74403;BME280;62837;51.082;13.744;2022-12-10T03:45:01;99480.27;;;3.60;72.09
74403;BME280;62837;51.082;13.744;2022-12-10T03:47:32;99478.06;;;3.46;72.25
74403;BME280;62837;51.082;13.744;2022-12-10T03:50:04;99477.63;;;3.46;73.77
74403;BME280;62837;51.082;13.744;2022-12-10T03:52:36;99476.92;;;3.49;72.86
74403;BME280;62837;51.082;13.744;2022-12-10T03:55:09;99474.52;;;3.39;72.48
74403;BME280;62837;51.082;13.744;2022-12-10T03:57:40;99471.58;;;3.36;72.63
74403;BME280;62837;51.082;13.744;2022-12-10T04:00:13;99467.73;;;3.34;73.00
74403;BME280;62837;51.082;13.744;2022-12-10T04:02:42;99464.23;;;3.31;73.38
74403;BME280;62837;51.082;13.744;2022-12-10T04:05:13;99463.31;;;3.36;74.13
74403;BME280;62837;51.082;13.744;2022-12-10T04:07:44;99465.91;;;3.42;73.30
74403;BME280;62837;51.082;13.744;2022-12-10T04:10:14;99464.70;;;3.44;73.43
74403;BME280;62837;51.082;13.744;2022-12-10T04:12:45;99465.77;;;3.41;72.50
74403;BME280;62837;51.082;13.744;2022-12-10T04:15:39;99466.13;;;3.45;73.97
74403;BME280;62837;51.082;13.744;2022-12-10T04:18:30;99466.69;;;3.41;72.31
74403;BME280;62837;51.082;13.744;2022-12-10T04:21:00;99466.18;;;3.34;73.18
74403;BME280;62837;51.082;13.744;2022-12-10T04:23:48;99471.33;;;3.33;72.45
74403;BME280;62837;51.082;13.744;2022-12-10T04:26:33;99472.69;;;3.24;71.86
74403;BME280;62837;51.082;13.744;2022-12-10T04:29:23;99471.82;;;3.14;72.71
74403;BME280;62837;51.082;13.744;2022-12-10T04:31:55;99469.88;;;3.15;73.46
74403;BME280;62837;51.082;13.744;2022-12-10T04:34:27;99469.83;;;3.21;73.64
74403;BME280;62837;51.082;13.744;2022-12-10T04:36:58;99470.06;;;3.19;73.12
74403;BME280;62837;51.082;13.744;2022-12-10T04:39:29;99468.17;;;3.22;73.18
74403;BME280;62837;51.082;13.744;2022-12-10T04:42:00;99466.10;;;3.24;73.17
74403;BME280;62837;51.082;13.744;2022-12-10T04:44:31;99467.75;;;3.22;73.93
74403;BME280;62837;51.082;13.744;2022-12-10T04:47:03;99466.88;;;3.29;73.50
74403;BME280;62837;51.082;13.744;2022-12-10T04:49:34;99468.73;;;3.27;72.68
74403;BME280;62837;51.082;13.744;2022-12-10T04:52:06;99468.03;;;3.18;72.75
74403;BME280;62837;51.082;13.744;2022-12-10T04:54:37;99467.20;;;3.22;73.84
74403;BME280;62837;51.082;13.744;2022-12-10T04:57:08;99463.19;;;3.29;73.75
74403;BME280;62837;51.082;13.744;2022-12-10T04:59:40;99461.74;;;3.32;73.89
74403;BME280;62837;51.082;13.744;2022-12-10T05:02:10;99463.27;;;3.43;74.75
74403;BME280;62837;51.082;13.744;2022-12-10T05:04:41;99456.10;;;3.60;74.54
74403;BME280;62837;51.082;13.744;2022-12-10T05:07:12;99455.17;;;3.72;73.97
74403;BME280;62837;51.082;13.744;2022-12-10T05:09:43;99448.27;;;3.65;72.69
74403;BME280;62837;51.082;13.744;2022-12-10T05:12:13;99457.57;;;3.62;73.68
74403;BME280;62837;51.082;13.744;2022-12-10T05:14:44;99458.64;;;3.66;73.90
74403;BME280;62837;51.082;13.744;2022-12-10T05:17:15;99461.55;;;3.70;72.98
74403;BME280;62837;51.082;13.744;2022-12-10T05:19:45;99459.17;;;3.71;73.68
74403;BME280;62837;51.082;13.744;2022-12-10T05:22:16;99458.36;;;3.76;73.16
74403;BME280;62837;51.082;13.744;2022-12-10T05:25:06;99458.80;;;3.74;72.72
74403;BME280;62837;51.082;13.744;2022-12-10T05:27:37;99459.73;;;3.73;72.82
74403;BME280;62837;51.082;13.744;2022-12-10T05:30:10;99458.70;;;3.74;73.09
74403;BME280;62837;51.082;13.744;2022-12-10T05:32:41;99457.25;;;3.75;72.99
74403;BME280;62837;51.082;13.744;2022-12-10T05:35:12;99461.02;;;3.70;71.90
74403;BME280;62837;51.082;13.744;2022-12-10T05:37:42;99460.33;;;3.60;72.48
74403;BME280;62837;51.082;13.744;2022-12-10T05:40:13;99464.77;;;3.55;72.92
74403;BME280;62837;51.082;13.744;2022-12-10T05:42:44;99466.93;;;3.58;72.79
74403;BME280;62837;51.082;13.744;2022-12-10T05:45:15;99466.45;;;3.54;72.41
74403;BME280;62837;51.082;13.744;2022-12-10T05:47:46;99469.48;;;3.49;72.15
74403;BME280;62837;51.082;13.744;2022-12-10T05:50:16;99468.43;;;3.34;72.45
74403;BME280;62837;51.082;13.744;2022-12-10T05:52:47;99469.14;;;3.32;73.04
74403;BME280;62837;51.082;13.744;2022-12-10T05:55:22;99469.79;;;3.30;72.75
74403;BME280;62837;51.082;13.744;2022-12-10T05:57:54;99473.84;;;3.31;73.57
74403;BME280;62837;51.082;13.744;2022-12-10T06:00:25;99474.27;;;3.35;73.16
74403;BME280;62837;51.082;13.744;2022-12-10T06:02:55;99472.36;;;3.27;72.62
74403;BME280;62837;51.082;13.744;2022-12-10T06:05:26;99473.83;;;3.24;72.97
74403;BME280;62837;51.082;13.744;2022-12-10T06:07:57;99472.02;;;3.19;73.21
74403;BME280;62837;51.082;13.744;2022-12-10T06:10:28;99465.52;;;3.10;73.18
74403;BME280;62837;51.082;13.744;2022-12-10T06:12:58;99480.74;;;3.10;73.60
74403;BME280;62837;51.082;13.744;2022-12-10T06:15:29;99479.06;;;3.10;74.08
74403;BME280;62837;51.082;13.744;2022-12-10T06:18:00;99480.23;;;3.18;73.84
74403;BME280;62837;51.082;13.744;2022-12-10T06:20:31;99481.75;;;3.20;73.42
74403;BME280;62837;51.082;13.744;2022-12-10T06:23:02;99483.88;;;3.25;74.71
74403;BME280;62837;51.082;13.744;2022-12-10T06:25:33;99485.88;;;3.41;75.35
74403;BME280;62837;51.082;13.744;2022-12-10T06:28:04;99483.64;;;3.55;74.23
74403;BME280;62837;51.082;13.744;2022-12-10T06:30:35;99487.92;;;3.56;73.68
74403;BME280;62837;51.082;13.744;2022-12-10T06:33:06;99495.81;;;3.57;74.03
74403;BME280;62837;51.082;13.744;2022-12-10T06:35:38;99498.70;;;3.61;74.16
74403;BME280;62837;51.082;13.744;2022-12-10T06:38:09;99494.80;;;3.71;74.63
74403;BME280;62837;51.082;13.744;2022-12-10T06:40:41;99498.13;;;3.83;74.27
74403;BME280;62837;51.082;13.744;2022-12-10T06:43:12;99496.92;;;3.90;73.90
74403;BME280;62837;51.082;13.744;2022-12-10T06:45:43;99497.70;;;3.96;73.54
74403;BME280;62837;51.082;13.744;2022-12-10T06:48:14;99501.70;;;3.92;72.26
74403;BME280;62837;51.082;13.744;2022-12-10T06:50:45;99502.79;;;3.80;72.09
74403;BME280;62837;51.082;13.744;2022-12-10T06:53:15;99504.98;;;3.63;71.69
74403;BME280;62837;51.082;13.744;2022-12-10T06:55:46;99506.60;;;3.44;72.09
74403;BME280;62837;51.082;13.744;2022-12-10T06:58:16;99511.88;;;3.25;71.93
74403;BME280;62837;51.082;13.744;2022-12-10T07:00:47;99512.52;;;3.09;71.90
74403;BME280;62837;51.082;13.744;2022-12-10T07:03:18;99516.31;;;2.95;72.36
74403;BME280;62837;51.082;13.744;2022-12-10T07:05:49;99523.06;;;2.84;72.26
74403;BME280;62837;51.082;13.744;2022-12-10T07:08:19;99520.48;;;2.77;72.94
74403;BME280;62837;51.082;13.744;2022-12-10T07:10:50;99524.86;;;2.72;73.20
74403;BME280;62837;51.082;13.744;2022-12-10T07:13:21;99518.88;;;2.64;73.60
74403;BME280;62837;51.082;13.744;2022-12-10T07:15:58;99524.63;;;2.62;73.66
74403;BME280;62837;51.082;13.744;2022-12-10T07:18:29;99528.95;;;2.53;74.12
74403;BME280;62837;51.082;13.744;2022-12-10T07:21:00;99527.33;;;2.46;74.71
74403;BME280;62837;51.082;13.744;2022-12-10T07:23:31;99527.00;;;2.42;75.07
74403;BME280;62837;51.082;13.744;2022-12-10T07:26:01;99531.58;;;2.39;74.96
74403;BME280;62837;51.082;13.744;2022-12-10T07:28:32;99530.95;;;2.33;74.61
74403;BME280;62837;51.082;13.744;2022-12-10T07:31:09;99532.32;;;2.28;75.75
74403;BME280;62837;51.082;13.744;2022-12-10T07:33:40;99540.16;;;2.27;75.72
74403;BME280;62837;51.082;13.744;2022-12-10T07:36:11;99535.73;;;2.24;75.74
74403;BME280;62837;51.082;13.744;2022-12-10T07:38:43;99538.63;;;2.23;75.70
74403;BME280;62837;51.082;13.744;2022-12-10T07:41:14;99536.66;;;2.23;76.05
74403;BME280;62837;51.082;13.744;2022-12-10T07:43:46;99538.97;;;2.25;76.36
74403;BME280;62837;51.082;13.744;2022-12-10T07:46:18;99539.16;;;2.27;76.51
74403;BME280;62837;51.082;13.744;2022-12-10T07:48:50;99540.73;;;2.32;76.53
74403;BME280;62837;51.082;13.744;2022-12-10T07:51:22;99540.22;;;2.35;76.73
74403;BME280;62837;51.082;13.744;2022-12-10T07:53:54;99541.08;;;2.30;76.09
74403;BME280;62837;51.082;13.744;2022-12-10T07:56:25;99540.75;;;2.27;76.53
74403;BME280;62837;51.082;13.744;2022-12-10T07:58:56;99544.37;;;2.28;76.41
74403;BME280;62837;51.082;13.744;2022-12-10T08:01:27;99547.18;;;2.30;76.70
74403;BME280;62837;51.082;13.744;2022-12-10T08:03:58;99545.41;;;2.30;76.48
74403;BME280;62837;51.082;13.744;2022-12-10T08:06:29;99540.98;;;2.27;76.75
74403;BME280;62837;51.082;13.744;2022-12-10T08:09:00;99542.51;;;2.26;76.88
74403;BME280;62837;51.082;13.744;2022-12-10T08:11:31;99545.61;;;2.24;76.69
74403;BME280;62837;51.082;13.744;2022-12-10T08:14:03;99550.30;;;2.23;76.75
74403;BME280;62837;51.082;13.744;2022-12-10T08:16:34;99551.19;;;2.22;76.56
74403;BME280;62837;51.082;13.744;2022-12-10T08:19:04;99552.52;;;2.22;76.53
74403;BME280;62837;51.082;13.744;2022-12-10T08:21:35;99552.23;;;2.21;76.25
74403;BME280;62837;51.082;13.744;2022-12-10T08:24:07;99555.02;;;2.24;76.26
74403;BME280;62837;51.082;13.744;2022-12-10T08:26:38;99556.23;;;2.27;76.28
74403;BME280;62837;51.082;13.744;2022-12-10T08:29:09;99558.81;;;2.27;76.21
74403;BME280;62837;51.082;13.744;2022-12-10T08:31:39;99556.26;;;2.25;76.42
74403;BME280;62837;51.082;13.744;2022-12-10T08:34:14;99558.83;;;2.22;76.44
74403;BME280;62837;51.082;13.744;2022-12-10T08:36:46;99557.92;;;2.24;76.40
74403;BME280;62837;51.082;13.744;2022-12-10T08:39:17;99561.11;;;2.23;76.12
74403;BME280;62837;51.082;13.744;2022-12-10T08:41:48;99557.28;;;2.17;76.53
74403;BME280;62837;51.082;13.744;2022-12-10T08:44:19;99560.19;;;2.15;76.62
74403;BME280;62837;51.082;13.744;2022-12-10T08:46:49;99562.70;;;2.13;76.42
74403;BME280;62837;51.082;13.744;2022-12-10T08:49:20;99562.15;;;2.10;76.57
74403;BME280;62837;51.082;13.744;2022-12-10T08:51:51;99565.34;;;2.09;76.45
74403;BME280;62837;51.082;13.744;2022-12-10T08:54:22;99572.71;;;2.06;76.79
74403;BME280;62837;51.082;13.744;2022-12-10T08:56:53;99573.67;;;2.05;76.59
74403;BME280;62837;51.082;13.744;2022-12-10T08:59:24;99574.23;;;2.05;76.52
74403;BME280;62837;51.082;13.744;2022-12-10T09:01:55;99578.94;;;2.05;77.00
74403;BME280;62837;51.082;13.744;2022-12-10T09:04:26;99577.89;;;2.03;77.00
74403;BME280;62837;51.082;13.744;2022-12-10T09:06:57;99580.27;;;2.03;76.64
74403;BME280;62837;51.082;13.744;2022-12-10T09:09:27;99581.00;;;2.03;76.84
74403;BME280;62837;51.082;13.744;2022-12-10T09:11:58;99588.64;;;2.03;77.02
74403;BME280;62837;51.082;13.744;2022-12-10T09:14:29;99591.50;;;2.00;76.98
74403;BME280;62837;51.082;13.744;2022-12-10T09:17:01;99584.61;;;1.96;76.94
74403;BME280;62837;51.082;13.744;2022-12-10T09:19:33;99585.03;;;1.96;76.76
74403;BME280;62837;51.082;13.744;2022-12-10T09:22:04;99585.87;;;1.96;76.99
74403;BME280;62837;51.082;13.744;2022-12-10T09:24:34;99587.92;;;1.99;76.92
74403;BME280;62837;51.082;13.744;2022-12-10T09:27:05;99586.61;;;2.05;77.04
74403;BME280;62837;51.082;13.744;2022-12-10T09:29:36;99585.55;;;2.08;76.93
74403;BME280;62837;51.082;13.744;2022-12-10T09:32:07;99585.04;;;2.13;76.78
74403;BME280;62837;51.082;13.744;2022-12-10T09:34:37;99580.77;;;2.17;76.90
74403;BME280;62837;51.082;13.744;2022-12-10T09:37:08;99582.02;;;2.23;76.78
74403;BME280;62837;51.082;13.744;2022-12-10T09:39:39;99579.70;;;2.23;76.39
74403;BME280;62837;51.082;13.744;2022-12-10T09:42:21;99585.23;;;2.25;76.08
74403;BME280;62837;51.082;13.744;2022-12-10T09:45:01;99582.13;;;2.21;76.09
74403;BME280;62837;51.082;13.744;2022-12-10T09:47:36;99580.02;;;2.18;75.95
74403;BME280;62837;51.082;13.744;2022-12-10T09:50:19;99583.95;;;2.18;76.60
74403;BME280;62837;51.082;13.744;2022-12-10T09:52:51;99583.84;;;2.20;76.41
74403;BME280;62837;51.082;13.744;2022-12-10T09:55:26;99577.46;;;2.23;76.50
74403;BME280;62837;51.082;13.744;2022-12-10T09:57:59;99576.27;;;2.26;76.39
74403;BME280;62837;51.082;13.744;2022-12-10T10:00:35;99577.88;;;2.30;76.57
74403;BME280;62837;51.082;13.744;2022-12-10T10:03:10;99573.86;;;2.33;76.48
74403;BME280;62837;51.082;13.744;2022-12-10T10:05:44;99573.73;;;2.32;75.99
74403;BME280;62837;51.082;13.744;2022-12-10T10:08:23;99573.27;;;2.29;75.88
74403;BME280;62837;51.082;13.744;2022-12-10T10:10:55;99574.41;;;2.24;75.80
74403;BME280;62837;51.082;13.744;2022-12-10T10:13:32;99572.39;;;2.22;76.05
74403;BME280;62837;51.082;13.744;2022-12-10T10:16:18;99572.88;;;2.23;76.14
74403;BME280;62837;51.082;13.744;2022-12-10T10:18:56;99572.61;;;2.20;76.11
74403;BME280;62837;51.082;13.744;2022-12-10T10:21:30;99571.39;;;2.16;76.36
74403;BME280;62837;51.082;13.744;2022-12-10T10:24:05;99567.48;;;2.12;76.07
74403;BME280;62837;51.082;13.744;2022-12-10T10:26:40;99566.80;;;2.09;76.33
74403;BME280;62837;51.082;13.744;2022-12-10T10:29:13;99563.38;;;2.09;76.34
74403;BME280;62837;51.082;13.744;2022-12-10T10:31:46;99566.38;;;2.13;76.75
74403;BME280;62837;51.082;13.744;2022-12-10T10:34:20;99563.71;;;2.18;76.80
74403;BME280;62837;51.082;13.744;2022-12-10T10:36:57;99569.45;;;2.16;76.19
74403;BME280;62837;51.082;13.744;2022-12-10T10:39:30;99569.59;;;2.10;76.40
74403;BME280;62837;51.082;13.744;2022-12-10T10:41:59;99570.54;;;2.09;76.58
74403;BME280;62837;51.082;13.744;2022-12-10T10:44:39;99566.90;;;2.12;76.98
74403;BME280;62837;51.082;13.744;2022-12-10T10:47:26;99564.13;;;2.16;77.09
74403;BME280;62837;51.082;13.744;2022-12-10T10:50:04;99566.48;;;2.20;76.29
74403;BME280;62837;51.082;13.744;2022-12-10T10:52:36;99557.79;;;2.22;76.65
74403;BME280;62837;51.082;13.744;2022-12-10T10:55:32;99557.59;;;2.20;76.00
74403;BME280;62837;51.082;13.744;2022-12-10T10:58:05;99560.25;;;2.13;76.30
74403;BME280;62837;51.082;13.744;2022-12-10T11:00:36;99558.83;;;2.05;76.23
74403;BME280;62837;51.082;13.744;2022-12-10T11:03:12;99558.87;;;2.00;76.37
74403;BME280;62837;51.082;13.744;2022-12-10T11:05:48;99560.88;;;1.97;76.57
74403;BME280;62837;51.082;13.744;2022-12-10T11:08:19;99563.70;;;1.98;77.06
74403;BME280;62837;51.082;13.744;2022-12-10T11:10:55;99559.95;;;2.02;76.58
74403;BME280;62837;51.082;13.744;2022-12-10T11:13:29;99564.12;;;2.03;76.61
74403;BME280;62837;51.082;13.744;2022-12-10T11:16:09;99569.44;;;2.00;76.50
74403;BME280;62837;51.082;13.744;2022-12-10T11:18:42;99564.80;;;1.97;76.71
74403;BME280;62837;51.082;13.744;2022-12-10T11:21:22;99560.77;;;2.03;79.05
74403;BME280;62837;51.082;13.744;2022-12-10T11:23:55;99561.14;;;2.20;77.99
74403;BME280;62837;51.082;13.744;2022-12-10T11:26:45;99561.16;;;2.23;77.12
74403;BME280;62837;51.082;13.744;2022-12-10T11:29:28;99562.33;;;2.23;76.97
74403;BME280;62837;51.082;13.744;2022-12-10T11:32:15;99565.00;;;2.22;76.68
74403;BME280;62837;51.082;13.744;2022-12-10T11:34:59;99566.55;;;2.21;76.40
74403;BME280;62837;51.082;13.744;2022-12-10T11:37:36;99568.39;;;2.18;76.26
74403;BME280;62837;51.082;13.744;2022-12-10T11:40:18;99566.23;;;2.15;76.59
74403;BME280;62837;51.082;13.744;2022-12-10T11:42:58;99563.02;;;2.15;76.36
74403;BME280;62837;51.082;13.744;2022-12-10T11:45:40;99563.52;;;2.15;76.72
74403;BME280;62837;51.082;13.744;2022-12-10T11:48:27;99568.19;;;2.17;76.85
74403;BME280;62837;51.082;13.744;2022-12-10T11:51:16;99569.01;;;2.21;76.58
74403;BME280;62837;51.082;13.744;2022-12-10T11:54:00;99567.81;;;2.25;76.25
74403;BME280;62837;51.082;13.744;2022-12-10T11:56:40;99569.20;;;2.27;76.28
74403;BME280;62837;51.082;13.744;2022-12-10T11:59:19;99566.79;;;2.25;76.19
74403;BME280;62837;51.082;13.744;2022-12-10T12:02:29;99566.28;;;2.26;76.71
74403;BME280;62837;51.082;13.744;2022-12-10T12:05:19;99569.20;;;2.27;76.46
74403;BME280;62837;51.082;13.744;2022-12-10T12:07:55;99570.17;;;2.29;76.43
74403;BME280;62837;51.082;13.744;2022-12-10T12:10:44;99571.11;;;2.30;76.27
74403;BME280;62837;51.082;13.744;2022-12-10T12:13:26;99569.50;;;2.27;76.16
74403;BME280;62837;51.082;13.744;2022-12-10T12:16:02;99568.67;;;2.21;76.49
74403;BME280;62837;51.082;13.744;2022-12-10T12:18:43;99562.96;;;2.21;76.50
74403;BME280;62837;51.082;13.744;2022-12-10T12:21:18;99568.05;;;2.23;76.55
74403;BME280;62837;51.082;13.744;2022-12-10T12:23:52;99570.77;;;2.24;76.66
74403;BME280;62837;51.082;13.744;2022-12-10T12:26:35;99574.77;;;2.25;76.59
74403;BME280;62837;51.082;13.744;2022-12-10T12:29:15;99572.34;;;2.26;76.44
74403;BME280;62837;51.082;13.744;2022-12-10T12:31:54;99569.59;;;2.22;76.76
74403;BME280;62837;51.082;13.744;2022-12-10T12:34:29;99573.31;;;2.20;76.67
74403;BME280;62837;51.082;13.744;2022-12-10T12:37:04;99567.80;;;2.21;76.46
74403;BME280;62837;51.082;13.744;2022-12-10T12:39:39;99569.89;;;2.20;76.33
74403;BME280;62837;51.082;13.744;2022-12-10T12:42:19;99564.33;;;2.19;76.44
74403;BME280;62837;51.082;13.744;2022-12-10T12:45:03;99565.55;;;2.12;76.35
74403;BME280;62837;51.082;13.744;2022-12-10T12:47:41;99563.53;;;2.10;76.45
74403;BME280;62837;51.082;13.744;2022-12-10T12:50:22;99559.89;;;2.08;76.20
74403;BME280;62837;51.082;13.744;2022-12-10T12:52:56;99562.61;;;2.07;76.67
74403;BME280;62837;51.082;13.744;2022-12-10T12:55:34;99564.54;;;2.01;76.07
74403;BME280;62837;51.082;13.744;2022-12-10T12:58:20;99561.00;;;1.97;75.96
74403;BME280;62837;51.082;13.744;2022-12-10T13:00:55;99566.01;;;1.89;76.33
74403;BME280;62837;51.082;13.744;2022-12-10T13:03:35;99565.84;;;1.84;76.21
74403;BME280;62837;51.082;13.744;2022-12-10T13:06:22;99567.61;;;1.83;76.09
74403;BME280;62837;51.082;13.744;2022-12-10T13:09:18;99568.30;;;1.80;76.20
74403;BME280;62837;51.082;13.744;2022-12-10T13:12:28;99567.55;;;1.75;76.10
74403;BME280;62837;51.082;13.744;2022-12-10T13:15:16;99573.54;;;1.71;76.61
74403;BME280;62837;51.082;13.744;2022-12-10T13:24:11;99581.01;;;1.71;77.21
74403;BME280;62837;51.082;13.744;2022-12-10T13:27:04;99583.41;;;1.79;77.07
74403;BME280;62837;51.082;13.744;2022-12-10T13:29:46;99586.70;;;1.87;76.88
74403;BME280;62837;51.082;13.744;2022-12-10T13:32:23;99591.45;;;1.91;76.85
74403;BME280;62837;51.082;13.744;2022-12-10T13:35:22;99592.45;;;1.93;77.12
74403;BME280;62837;51.082;13.744;2022-12-10T13:38:02;99594.46;;;1.96;76.98
74403;BME280;62837;51.082;13.744;2022-12-10T13:40:41;99594.83;;;1.93;77.00
74403;BME280;62837;51.082;13.744;2022-12-10T13:43:51;99592.70;;;1.89;77.08
74403;BME280;62837;51.082;13.744;2022-12-10T13:46:52;99598.82;;;1.85;77.03
74403;BME280;62837;51.082;13.744;2022-12-10T13:49:26;99600.10;;;1.78;76.92